createdAt,value
2022-12-01T00:01:41.518Z,36.65
2022-12-01T00:04:07.896Z,33.22
2022-12-01T00:06:34.273Z,31.45
2022-12-01T00:09:20.159Z,29.75
2022-12-01T00:11:47.028Z,26.95
2022-12-01T00:14:13.452Z,24.25
2022-12-01T00:16:41.128Z,25.33
2022-12-01T00:19:08.763Z,23.95
2022-12-01T00:21:35.175Z,23.70
2022-12-01T00:24:01.767Z,24.00
2022-12-01T00:26:28.303Z,24.10
2022-12-01T00:28:56.084Z,24.58
2022-12-01T00:31:23.088Z,26.05
2022-12-01T00:33:49.627Z,21.80
2022-12-01T00:36:16.031Z,24.13
2022-12-01T00:38:42.671Z,25.15
2022-12-01T00:41:09.336Z,22.30
2022-12-01T00:43:35.783Z,23.17
2022-12-01T00:46:02.313Z,20.00
2022-12-01T00:48:28.756Z,19.27
2022-12-01T00:50:55.624Z,21.52
2022-12-01T00:53:22.301Z,20.63
2022-12-01T00:55:48.787Z,17.05
2022-12-01T00:58:15.184Z,19.60
2022-12-01T01:00:43.005Z,18.05
2022-12-01T01:03:09.883Z,18.90
2022-12-01T01:05:40.183Z,18.25
2022-12-01T01:08:07.816Z,17.38
2022-12-01T01:10:34.454Z,16.75
2022-12-01T01:13:00.803Z,18.65
2022-12-01T01:15:27.212Z,20.48
2022-12-01T01:17:53.598Z,22.02
2022-12-01T01:20:20.027Z,19.83
2022-12-01T01:22:46.394Z,18.98
2022-12-01T01:25:12.807Z,19.05
2022-12-01T01:27:39.151Z,21.17
2022-12-01T01:30:05.970Z,19.35
2022-12-01T01:32:32.346Z,24.05
2022-12-01T01:34:58.765Z,21.08
2022-12-01T01:37:25.162Z,23.25
2022-12-01T01:39:51.598Z,23.35
2022-12-01T01:42:19.599Z,24.35
2022-12-01T01:47:13.109Z,22.80
2022-12-01T01:49:40.522Z,26.33
2022-12-01T01:52:06.984Z,23.27
2022-12-01T01:54:39.318Z,22.38
2022-12-01T01:57:06.875Z,20.17
2022-12-01T01:59:37.266Z,18.70
2022-12-01T02:02:06.627Z,19.83
2022-12-01T02:04:34.483Z,20.23
2022-12-01T02:07:00.856Z,19.50
2022-12-01T02:09:27.264Z,19.08
2022-12-01T02:11:53.603Z,21.73
2022-12-01T02:14:33.956Z,17.88
2022-12-01T02:17:18.848Z,17.50
2022-12-01T02:19:45.252Z,18.17
2022-12-01T02:22:19.052Z,19.85
2022-12-01T02:24:51.810Z,20.13
2022-12-01T02:27:36.782Z,21.25
2022-12-01T02:30:15.080Z,21.73
2022-12-01T02:32:41.439Z,21.40
2022-12-01T02:35:07.793Z,18.23
2022-12-01T02:37:38.236Z,18.35
2022-12-01T02:40:27.964Z,19.17
2022-12-01T02:43:06.926Z,18.73
2022-12-01T02:45:41.704Z,15.27
2022-12-01T02:48:41.203Z,16.42
2022-12-01T02:51:09.339Z,16.25
2022-12-01T02:53:36.128Z,16.92
2022-12-01T02:56:05.987Z,17.52
2022-12-01T02:58:32.403Z,20.05
2022-12-01T03:01:20.685Z,16.63
2022-12-01T03:04:05.601Z,18.05
2022-12-01T03:06:51.541Z,15.60
2022-12-01T03:09:17.998Z,17.50
2022-12-01T03:11:57.219Z,18.98
2022-12-01T03:14:34.355Z,14.55
2022-12-01T03:17:04.167Z,17.48
2022-12-01T03:19:30.570Z,15.88
2022-12-01T03:22:08.803Z,14.07
2022-12-01T03:24:35.908Z,15.68
2022-12-01T03:27:03.063Z,17.17
2022-12-01T03:29:36.655Z,16.23
2022-12-01T03:32:15.819Z,15.82
2022-12-01T03:34:42.167Z,16.00
2022-12-01T03:37:18.301Z,16.42
2022-12-01T03:39:46.627Z,16.27
2022-12-01T03:42:32.015Z,16.80
2022-12-01T03:45:00.892Z,16.33
2022-12-01T03:47:30.875Z,18.13
2022-12-01T03:49:58.216Z,18.00
2022-12-01T03:52:39.210Z,14.13
2022-12-01T03:55:09.500Z,14.45
2022-12-01T03:57:47.179Z,15.68
2022-12-01T04:00:14.517Z,16.85
2022-12-01T04:02:41.443Z,14.93
2022-12-01T04:05:11.272Z,15.57
2022-12-01T04:07:38.544Z,15.25
2022-12-01T04:10:05.437Z,13.70
2022-12-01T04:12:34.775Z,13.88
2022-12-01T04:15:06.053Z,14.95
2022-12-01T04:17:32.452Z,16.30
2022-12-01T04:19:58.838Z,15.02
2022-12-01T04:22:25.577Z,15.50
2022-12-01T04:24:52.279Z,14.50
2022-12-01T04:27:18.871Z,15.13
2022-12-01T04:29:45.314Z,16.70
2022-12-01T04:32:11.871Z,15.93
2022-12-01T04:34:38.266Z,15.25
2022-12-01T04:37:05.843Z,13.38
2022-12-01T04:39:32.219Z,14.20
2022-12-01T04:41:58.650Z,15.73
2022-12-01T04:44:27.769Z,13.50
2022-12-01T04:46:56.653Z,17.42
2022-12-01T04:49:23.071Z,13.77
2022-12-01T04:51:49.464Z,14.23
2022-12-01T04:54:16.592Z,13.52
2022-12-01T04:56:43.134Z,14.03
2022-12-01T04:59:09.545Z,18.80
2022-12-01T05:01:36.291Z,13.85
2022-12-01T05:04:02.744Z,15.70
2022-12-01T05:06:29.474Z,15.75
2022-12-01T05:08:57.049Z,14.27
2022-12-01T05:11:24.242Z,14.63
2022-12-01T05:13:50.824Z,18.90
2022-12-01T05:16:17.215Z,13.55
2022-12-01T05:18:43.733Z,15.35
2022-12-01T05:21:11.181Z,13.77
2022-12-01T05:23:38.243Z,14.32
2022-12-01T05:26:05.667Z,14.07
2022-12-01T05:28:32.100Z,15.38
2022-12-01T05:30:58.894Z,11.90
2022-12-01T05:33:26.096Z,14.10
2022-12-01T05:35:52.558Z,10.85
2022-12-01T05:38:19.286Z,10.30
2022-12-01T05:40:52.452Z,11.27
2022-12-01T05:43:21.653Z,10.60
2022-12-01T05:45:51.829Z,11.43
2022-12-01T05:48:18.300Z,10.70
2022-12-01T05:50:44.735Z,9.05
2022-12-01T05:53:12.311Z,10.15
2022-12-01T05:55:38.892Z,9.98
2022-12-01T05:58:05.262Z,10.77
2022-12-01T06:00:31.676Z,11.73
2022-12-01T06:02:58.053Z,12.32
2022-12-01T06:05:24.560Z,12.43
2022-12-01T06:07:50.952Z,9.88
2022-12-01T06:10:17.352Z,10.88
2022-12-01T06:12:43.745Z,10.68
2022-12-01T06:15:11.038Z,9.32
2022-12-01T06:17:40.353Z,10.52
2022-12-01T06:20:07.324Z,9.68
2022-12-01T06:22:33.724Z,9.50
2022-12-01T06:25:00.098Z,9.90
2022-12-01T06:27:26.457Z,9.38
2022-12-01T06:29:53.244Z,10.70
2022-12-01T06:32:19.844Z,8.38
2022-12-01T06:34:46.243Z,10.13
2022-12-01T06:37:15.505Z,10.20
2022-12-01T06:39:41.882Z,12.48
2022-12-01T06:42:08.283Z,9.95
2022-12-01T06:44:34.655Z,10.43
2022-12-01T06:47:01.054Z,10.45
2022-12-01T06:49:27.397Z,11.30
2022-12-01T06:51:53.806Z,9.77
2022-12-01T06:54:21.354Z,9.95
2022-12-01T06:56:47.718Z,9.73
2022-12-01T06:59:14.314Z,11.02
2022-12-01T07:01:41.085Z,9.48
2022-12-01T07:04:07.508Z,12.10
2022-12-01T07:06:33.932Z,11.65
2022-12-01T07:09:00.291Z,11.05
2022-12-01T07:11:26.708Z,9.88
2022-12-01T07:13:55.951Z,12.07
2022-12-01T07:16:23.037Z,10.77
2022-12-01T07:18:49.662Z,10.50
2022-12-01T07:21:16.375Z,9.93
2022-12-01T07:23:43.118Z,10.52
2022-12-01T07:26:17.386Z,11.77
2022-12-01T07:28:44.227Z,10.18
2022-12-01T07:31:15.314Z,11.48
2022-12-01T07:33:41.807Z,10.00
2022-12-01T07:36:08.872Z,9.70
2022-12-01T07:38:35.864Z,14.32
2022-12-01T07:41:09.743Z,12.02
2022-12-01T07:43:36.312Z,10.05
2022-12-01T07:46:15.882Z,12.45
2022-12-01T07:48:47.292Z,13.13
2022-12-01T07:51:16.614Z,12.70
2022-12-01T07:53:46.725Z,11.48
2022-12-01T07:56:13.409Z,8.90
2022-12-01T07:58:39.820Z,10.75
2022-12-01T08:01:13.389Z,10.02
2022-12-01T08:03:39.938Z,11.40
2022-12-01T08:06:06.741Z,12.45
2022-12-01T08:08:34.168Z,10.05
2022-12-01T08:11:01.848Z,10.02
2022-12-01T08:13:28.849Z,9.70
2022-12-01T08:15:55.703Z,12.38
2022-12-01T08:18:23.031Z,10.45
2022-12-01T08:20:50.193Z,9.40
2022-12-01T08:23:16.597Z,10.67
2022-12-01T08:25:42.951Z,9.63
2022-12-01T08:28:09.336Z,10.02
2022-12-01T08:30:36.318Z,8.52
2022-12-01T08:33:03.008Z,8.88
2022-12-01T08:35:29.417Z,9.23
2022-12-01T08:37:55.802Z,11.77
2022-12-01T08:40:22.224Z,11.27
2022-12-01T08:42:48.658Z,10.10
2022-12-01T08:45:15.026Z,9.55
2022-12-01T08:47:41.378Z,9.57
2022-12-01T08:50:07.956Z,11.18
2022-12-01T08:52:34.596Z,12.02
2022-12-01T08:55:01.110Z,12.30
2022-12-01T08:57:29.339Z,8.73
2022-12-01T08:59:55.821Z,9.25
2022-12-01T09:02:22.435Z,9.38
2022-12-01T09:04:50.099Z,8.80
2022-12-01T09:07:20.275Z,8.88
2022-12-01T09:09:51.478Z,9.02
2022-12-01T09:12:17.916Z,7.97
2022-12-01T09:14:49.636Z,8.95
2022-12-01T09:17:17.031Z,10.32
2022-12-01T09:19:43.722Z,9.02
2022-12-01T09:22:10.724Z,8.98
2022-12-01T09:24:37.157Z,8.20
2022-12-01T09:27:03.729Z,8.57
2022-12-01T09:29:30.824Z,9.27
2022-12-01T09:31:58.026Z,9.63
2022-12-01T09:34:24.893Z,8.98
2022-12-01T09:36:54.520Z,9.02
2022-12-01T09:39:21.339Z,9.93
2022-12-01T09:41:54.246Z,12.43
2022-12-01T09:44:24.326Z,10.43
2022-12-01T09:46:56.019Z,12.85
2022-12-01T09:49:24.064Z,10.13
2022-12-01T09:54:16.767Z,10.05
2022-12-01T09:56:45.446Z,11.80
2022-12-01T09:59:17.860Z,8.63
2022-12-01T10:01:46.550Z,10.30
2022-12-01T10:04:33.312Z,10.77
2022-12-01T10:06:59.668Z,10.18
2022-12-01T10:09:32.376Z,9.18
2022-12-01T10:12:01.834Z,9.70
2022-12-01T10:14:29.307Z,9.88
2022-12-01T10:16:55.642Z,9.55
2022-12-01T10:19:26.097Z,11.15
2022-12-01T10:21:52.431Z,13.07
2022-12-01T10:24:37.601Z,10.38
2022-12-01T10:27:10.007Z,11.80
2022-12-01T10:29:49.100Z,11.02
2022-12-01T10:32:19.858Z,9.60
2022-12-01T10:34:47.894Z,9.95
2022-12-01T10:39:42.576Z,9.60
2022-12-01T10:42:35.516Z,10.38
2022-12-01T10:45:04.804Z,8.80
2022-12-01T10:47:32.145Z,9.25
2022-12-01T10:49:58.804Z,8.88
2022-12-01T10:52:38.689Z,9.75
2022-12-01T10:55:24.062Z,9.60
2022-12-01T10:57:51.097Z,8.25
2022-12-01T11:00:57.444Z,10.30
2022-12-01T11:03:21.581Z,8.40
2022-12-01T11:05:53.218Z,11.32
2022-12-01T11:08:23.604Z,10.73
2022-12-01T11:10:50.310Z,8.82
2022-12-01T11:13:24.355Z,10.18
2022-12-01T11:16:01.053Z,9.68
2022-12-01T11:18:27.431Z,8.52
2022-12-01T11:21:12.700Z,8.90
2022-12-01T11:23:45.487Z,10.50
2022-12-01T11:26:14.070Z,9.90
2022-12-01T11:28:42.596Z,7.93
2022-12-01T11:31:10.100Z,7.85
2022-12-01T11:33:48.815Z,8.27
2022-12-01T11:36:21.405Z,8.77
2022-12-01T11:38:47.806Z,7.72
2022-12-01T11:41:27.020Z,7.93
2022-12-01T11:44:01.475Z,8.15
2022-12-01T11:46:36.992Z,6.35
2022-12-01T11:49:03.700Z,9.70
2022-12-01T11:51:32.385Z,8.55
2022-12-01T11:54:13.751Z,8.35
2022-12-01T11:56:40.553Z,9.27
2022-12-01T11:59:11.501Z,9.15
2022-12-01T12:01:57.028Z,9.32
2022-12-01T12:04:32.778Z,8.88
2022-12-01T12:07:08.473Z,9.73
2022-12-01T12:09:45.357Z,10.18
2022-12-01T12:12:27.480Z,10.13
2022-12-01T12:15:12.732Z,8.77
2022-12-01T12:17:46.323Z,10.32
2022-12-01T12:20:44.983Z,7.75
2022-12-01T12:23:14.167Z,8.38
2022-12-01T12:25:46.603Z,8.93
2022-12-01T12:28:15.995Z,7.88
2022-12-01T12:31:05.750Z,8.75
2022-12-01T12:33:35.140Z,8.52
2022-12-01T12:36:01.490Z,7.70
2022-12-01T12:38:27.860Z,7.90
2022-12-01T12:41:06.467Z,8.85
2022-12-01T12:43:33.529Z,7.05
2022-12-01T12:46:01.859Z,12.63
2022-12-01T12:48:28.322Z,8.05
2022-12-01T12:51:08.288Z,8.13
2022-12-01T12:54:04.506Z,8.07
2022-12-01T12:56:31.739Z,8.63
2022-12-01T12:59:01.282Z,8.38
2022-12-01T13:01:33.759Z,7.90
2022-12-01T13:04:03.731Z,8.13
2022-12-01T13:06:41.796Z,8.50
2022-12-01T13:09:11.406Z,8.80
2022-12-01T13:11:53.546Z,8.80
2022-12-01T13:14:19.906Z,8.30
2022-12-01T13:16:47.641Z,8.73
2022-12-01T13:19:20.801Z,8.20
2022-12-01T13:21:48.913Z,7.80
2022-12-01T13:24:23.362Z,8.32
2022-12-01T13:26:52.549Z,7.90
2022-12-01T13:29:21.583Z,8.55
2022-12-01T13:31:49.703Z,7.95
2022-12-01T13:34:21.487Z,7.63
2022-12-01T13:36:48.962Z,8.90
2022-12-01T13:39:20.132Z,8.88
2022-12-01T13:41:46.943Z,8.50
2022-12-01T13:44:23.526Z,9.35
2022-12-01T13:46:57.149Z,9.48
2022-12-01T13:49:46.895Z,8.98
2022-12-01T13:52:22.484Z,9.18
2022-12-01T13:55:01.023Z,8.85
2022-12-01T13:57:28.631Z,8.63
2022-12-01T14:00:00.782Z,8.85
2022-12-01T14:02:28.407Z,9.35
2022-12-01T14:04:55.052Z,9.15
2022-12-01T14:07:23.646Z,8.80
2022-12-01T14:09:52.217Z,9.48
2022-12-01T14:12:21.935Z,9.10
2022-12-01T14:14:53.774Z,9.32
2022-12-01T14:17:24.992Z,10.57
2022-12-01T14:19:52.446Z,10.75
2022-12-01T14:22:37.075Z,10.93
2022-12-01T14:25:06.245Z,12.38
2022-12-01T14:27:33.920Z,12.18
2022-12-01T14:30:20.252Z,12.80
2022-12-01T14:32:46.638Z,12.50
2022-12-01T14:35:13.821Z,12.80
2022-12-01T14:37:41.543Z,12.15
2022-12-01T14:40:12.409Z,13.32
2022-12-01T14:42:59.201Z,12.40
2022-12-01T14:45:30.879Z,11.53
2022-12-01T14:48:00.808Z,11.57
2022-12-01T14:50:46.378Z,13.43
2022-12-01T14:53:18.679Z,12.23
2022-12-01T14:55:51.008Z,12.27
2022-12-01T14:58:19.523Z,12.93
2022-12-01T15:00:57.930Z,12.55
2022-12-01T15:03:30.486Z,13.63
2022-12-01T15:05:58.328Z,14.95
2022-12-01T15:08:49.102Z,14.65
2022-12-01T15:13:44.488Z,15.85
2022-12-01T15:16:15.655Z,16.13
2022-12-01T15:18:42.164Z,18.17
2022-12-01T15:21:11.590Z,14.63
2022-12-01T15:23:52.593Z,16.02
2022-12-01T15:26:19.750Z,13.50
2022-12-01T15:28:46.238Z,14.43
2022-12-01T15:31:13.265Z,13.43
2022-12-01T15:33:46.755Z,14.67
2022-12-01T15:36:13.359Z,13.82
2022-12-01T15:38:40.787Z,13.00
2022-12-01T15:44:05.504Z,12.52
2022-12-01T15:46:34.239Z,13.13
2022-12-01T15:49:27.759Z,14.57
2022-12-01T15:51:54.863Z,15.02
2022-12-01T15:54:23.233Z,17.93
2022-12-01T15:56:56.812Z,18.17
2022-12-01T15:59:28.679Z,17.45
2022-12-01T16:01:56.849Z,14.77
2022-12-01T16:04:25.186Z,14.95
2022-12-01T16:07:11.882Z,13.45
2022-12-01T16:09:42.415Z,15.95
2022-12-01T16:12:11.847Z,15.02
2022-12-01T16:14:48.808Z,15.38
2022-12-01T16:17:17.111Z,14.18
2022-12-01T16:19:45.431Z,15.25
2022-12-01T16:22:11.810Z,14.10
2022-12-01T16:24:46.606Z,15.18
2022-12-01T16:27:27.420Z,15.95
2022-12-01T16:29:53.798Z,17.33
2022-12-01T16:32:34.645Z,17.08
2022-12-01T16:35:01.849Z,17.50
2022-12-01T16:37:28.448Z,20.73
2022-12-01T16:39:54.862Z,20.50
2022-12-01T16:42:21.626Z,18.23
2022-12-01T16:44:48.776Z,18.25
2022-12-01T16:47:17.605Z,17.70
2022-12-01T16:49:44.088Z,16.58
2022-12-01T16:54:57.088Z,16.50
2022-12-01T16:57:23.441Z,16.40
2022-12-01T16:59:49.803Z,17.13
2022-12-01T17:02:16.312Z,15.73
2022-12-01T17:04:42.727Z,17.50
2022-12-01T17:07:09.098Z,14.43
2022-12-01T17:09:35.795Z,17.92
2022-12-01T17:12:02.160Z,20.10
2022-12-01T17:14:29.314Z,19.48
2022-12-01T17:16:57.376Z,18.10
2022-12-01T17:19:23.847Z,20.67
2022-12-01T17:21:50.231Z,21.88
2022-12-01T17:24:19.191Z,20.27
2022-12-01T17:26:45.909Z,19.13
2022-12-01T17:29:12.265Z,17.30
2022-12-01T17:31:38.692Z,20.05
2022-12-01T17:34:05.156Z,21.45
2022-12-01T17:36:31.543Z,16.67
2022-12-01T17:38:58.769Z,19.60
2022-12-01T17:41:32.101Z,21.25
2022-12-01T17:43:58.584Z,19.60
2022-12-01T17:46:25.021Z,22.50
2022-12-01T17:48:51.451Z,20.95
2022-12-01T17:51:17.878Z,20.92
2022-12-01T17:53:44.440Z,19.15
2022-12-01T17:56:12.333Z,20.33
2022-12-01T17:58:39.245Z,22.00
2022-12-01T18:01:06.411Z,19.38
2022-12-01T18:03:32.765Z,20.70
2022-12-01T18:06:00.011Z,19.42
2022-12-01T18:08:27.054Z,20.48
2022-12-01T18:10:53.524Z,18.87
2022-12-01T18:13:21.389Z,20.58
2022-12-01T18:18:14.379Z,15.68
2022-12-01T18:20:41.729Z,17.55
2022-12-01T18:23:08.268Z,18.77
2022-12-01T18:25:36.014Z,14.27
2022-12-01T18:28:02.997Z,17.42
2022-12-01T18:30:29.835Z,17.67
2022-12-01T18:32:58.155Z,17.52
2022-12-01T18:35:30.226Z,18.52
2022-12-01T18:37:58.054Z,17.05
2022-12-01T18:40:24.416Z,17.00
2022-12-01T18:42:50.933Z,16.65
2022-12-01T18:45:21.177Z,16.70
2022-12-01T18:47:47.733Z,18.42
2022-12-01T18:50:14.320Z,18.17
2022-12-01T18:52:40.717Z,21.10
2022-12-01T18:55:07.299Z,17.02
2022-12-01T18:57:33.752Z,19.45
2022-12-01T19:00:00.135Z,16.10
2022-12-01T19:02:26.670Z,18.00
2022-12-01T19:04:53.353Z,18.85
2022-12-01T19:07:19.792Z,19.02
2022-12-01T19:09:46.234Z,25.70
2022-12-01T19:12:12.635Z,24.23
2022-12-01T19:14:39.023Z,19.92
2022-12-01T19:17:05.418Z,17.73
2022-12-01T19:19:37.195Z,21.23
2022-12-01T19:22:04.143Z,19.67
2022-12-01T19:24:30.534Z,20.35
2022-12-01T19:26:56.978Z,19.50
2022-12-01T19:29:23.362Z,23.48
2022-12-01T19:31:49.965Z,18.42
2022-12-01T19:34:16.383Z,22.08
2022-12-01T19:36:42.752Z,20.02
2022-12-01T19:39:09.194Z,20.95
2022-12-01T19:41:35.760Z,18.30
2022-12-01T19:44:02.151Z,22.38
2022-12-01T19:46:28.858Z,18.10
2022-12-01T19:48:56.936Z,21.02
2022-12-01T19:53:49.654Z,16.88
2022-12-01T19:56:16.030Z,16.20
2022-12-01T19:58:42.446Z,18.90
2022-12-01T20:01:10.232Z,17.88
2022-12-01T20:03:37.751Z,15.88
2022-12-01T20:06:05.065Z,16.80
2022-12-01T20:08:35.573Z,14.40
2022-12-01T20:11:03.640Z,15.50
2022-12-01T20:13:33.809Z,18.40
2022-12-01T20:16:04.410Z,14.23
2022-12-01T20:18:30.913Z,14.95
2022-12-01T20:21:08.924Z,15.50
2022-12-01T20:23:35.886Z,15.32
2022-12-01T20:26:03.511Z,12.85
2022-12-01T20:28:30.300Z,11.23
2022-12-01T20:30:57.364Z,12.23
2022-12-01T20:33:24.355Z,14.77
2022-12-01T20:35:50.755Z,15.57
2022-12-01T20:38:17.312Z,14.15
2022-12-01T20:40:43.707Z,13.02
2022-12-01T20:43:10.073Z,12.18
2022-12-01T20:45:36.553Z,12.18
2022-12-01T20:48:03.042Z,13.05
2022-12-01T20:50:29.451Z,11.98
2022-12-01T20:52:55.832Z,12.90
2022-12-01T20:55:24.350Z,13.88
2022-12-01T20:57:50.952Z,16.15
2022-12-01T21:00:17.476Z,12.95
2022-12-01T21:02:43.920Z,12.40
2022-12-01T21:05:10.410Z,12.32
2022-12-01T21:07:36.854Z,11.30
2022-12-01T21:10:03.818Z,14.50
2022-12-01T21:12:48.898Z,14.85
2022-12-01T21:15:22.073Z,14.63
2022-12-01T21:17:53.057Z,13.45
2022-12-01T21:20:25.190Z,13.60
2022-12-01T21:22:53.542Z,13.55
2022-12-01T21:25:21.298Z,14.95
2022-12-01T21:27:47.987Z,12.43
2022-12-01T21:30:22.033Z,13.07
2022-12-01T21:32:49.405Z,14.38
2022-12-01T21:35:17.546Z,15.45
2022-12-01T21:37:44.671Z,15.35
2022-12-01T21:40:24.131Z,13.40
2022-12-01T21:42:51.450Z,12.50
2022-12-01T21:45:23.936Z,13.52
2022-12-01T21:47:50.335Z,13.25
2022-12-01T21:50:22.298Z,13.30
2022-12-01T21:52:49.252Z,13.45
2022-12-01T21:55:15.602Z,12.95
2022-12-01T21:57:43.033Z,13.30
2022-12-01T22:00:28.738Z,13.43
2022-12-01T22:03:13.631Z,11.82
2022-12-01T22:05:41.230Z,13.40
2022-12-01T22:08:07.671Z,11.70
2022-12-01T22:10:54.490Z,12.45
2022-12-01T22:13:40.945Z,14.27
2022-12-01T22:16:14.948Z,12.45
2022-12-01T22:18:42.323Z,14.13
2022-12-01T22:21:29.006Z,14.27
2022-12-01T22:24:04.568Z,14.80
2022-12-01T22:26:31.450Z,12.95
2022-12-01T22:28:58.742Z,14.68
2022-12-01T22:31:25.357Z,15.65
2022-12-01T22:34:00.176Z,14.15
2022-12-01T22:36:31.236Z,16.67
2022-12-01T22:38:57.955Z,16.70
2022-12-01T22:41:24.494Z,42.28
2022-12-01T22:43:51.904Z,18.33
2022-12-01T22:46:30.594Z,16.38
2022-12-01T22:48:57.032Z,19.42
2022-12-01T22:51:38.105Z,14.27
2022-12-01T22:54:19.998Z,16.30
2022-12-01T22:56:47.229Z,15.10
2022-12-01T22:59:23.791Z,14.65
2022-12-01T23:01:57.422Z,18.15
2022-12-01T23:04:28.113Z,15.60
2022-12-01T23:06:54.463Z,16.30
2022-12-01T23:09:21.774Z,15.57
2022-12-01T23:11:52.639Z,15.90
2022-12-01T23:14:22.994Z,16.10
2022-12-01T23:16:52.350Z,15.85
2022-12-01T23:19:18.725Z,13.40
2022-12-01T23:21:45.113Z,14.50
2022-12-01T23:24:15.060Z,14.82
2022-12-01T23:26:44.350Z,14.20
2022-12-01T23:29:10.723Z,15.95
2022-12-01T23:31:37.211Z,19.08
2022-12-01T23:34:06.239Z,13.07
2022-12-01T23:36:32.612Z,15.20
2022-12-01T23:39:01.648Z,12.80
2022-12-01T23:41:40.296Z,14.70
2022-12-01T23:44:18.961Z,12.52
2022-12-01T23:46:45.549Z,12.35
2022-12-01T23:49:16.148Z,12.77
2022-12-01T23:51:51.230Z,10.23
2022-12-01T23:54:23.876Z,11.38
2022-12-01T23:56:51.990Z,10.50
2022-12-01T23:59:19.406Z,12.27
